Dewy Rose, Georgia
Current Conditions -  °F | °C
As of 6:51 PM on Thursday 27 Nov 2014 (Local Time) from KAHN Reporting Station
Clear Clear  
Wind Chill: 34°   Ceiling: Unl
Heat Index: 40°   Visibility: 10mi
Dew Point: 25°   Wind: 9mph
Humidity: 55%   Direction: 300°WNW
Pressure: 30.31"   Gusts: NA
Location:  34.17°N, 82.95°W
Report Text: KAHN 272351Z 30008KT 10SM CLR 04/M04 A3031 RMK AO2 SLP270 T00441039 10100 20039 53020
Loading
Personal Weather Stations






























Interactive Weather Map New forecast layout! Learn more

10-Day Weather Forecast

Advertisements
Track Severe Weather on mobile